Time;durP1;ratioP1;P1;durP2;ratioP2;P2;SDS_P1;SDS_P2;PMS_P1;PMS_P2;Temp;Humidity;BMP_temperature;BMP_pressure;BME280_temperature;BME280_humidity;BME280_pressure;Samples;Min_cycle;Max_cycle;Signal;HPM_P1;HPM_P2
2023/10/07 00:00:17;;;;;;;14.13;8.90;;;13.60;99.90;;;;;;4997255;28;20424;-67
2023/10/07 00:02:42;;;;;;;14.37;8.90;;;13.50;99.90;;;;;;4998586;28;20570;-66
2023/10/07 00:05:14;;;;;;;14.90;9.10;;;13.60;99.90;;;;;;5002014;28;20933;-66
2023/10/07 00:07:43;;;;;;;18.43;9.23;;;13.60;99.90;;;;;;5000562;28;20283;-67
2023/10/07 00:10:19;;;;;;;15.03;9.70;;;13.50;99.90;;;;;;4999855;28;20525;-67
2023/10/07 00:12:45;;;;;;;12.10;7.97;;;13.60;99.90;;;;;;5002100;28;20526;-66
2023/10/07 00:15:11;;;;;;;14.40;8.60;;;13.50;99.90;;;;;;5005338;28;20431;-67
2023/10/07 00:17:43;;;;;;;19.53;7.90;;;13.50;99.90;;;;;;5001974;28;20443;-67
2023/10/07 00:20:12;;;;;;;13.27;8.47;;;13.50;99.90;;;;;;4999977;28;20186;-67
2023/10/07 00:22:41;;;;;;;11.87;7.57;;;13.40;99.90;;;;;;5005830;28;20546;-67
2023/10/07 00:25:07;;;;;;;14.20;8.70;;;13.40;99.90;;;;;;5009800;28;20503;-67
2023/10/07 00:27:38;;;;;;;15.60;8.77;;;13.40;99.90;;;;;;5005837;28;20450;-67
2023/10/07 00:30:13;;;;;;;14.10;8.40;;;13.30;99.90;;;;;;5012325;28;20478;-67
2023/10/07 00:32:39;;;;;;;14.73;7.37;;;13.30;99.90;;;;;;5009973;28;20446;-67
2023/10/07 00:35:06;;;;;;;13.87;8.20;;;13.30;99.90;;;;;;5010769;28;20778;-68
2023/10/07 00:37:37;;;;;;;13.00;7.60;;;13.20;99.90;;;;;;5004596;28;20798;-67
2023/10/07 00:42:59;;;;;;;13.57;8.70;;;13.20;99.90;;;;;;4996925;28;20471;-67
2023/10/07 00:45:25;;;;;;;14.33;8.40;;;13.10;99.90;;;;;;4998499;28;20429;-67
2023/10/07 00:47:52;;;;;;;12.90;8.57;;;13.10;99.90;;;;;;5006714;28;20185;-67
2023/10/07 00:50:20;;;;;;;15.50;8.53;;;13.10;99.90;;;;;;5005560;28;20499;-67
2023/10/07 00:55:30;;;;;;;13.43;7.87;;;13.00;99.90;;;;;;4999547;28;20439;-67
2023/10/07 01:00:48;;;;;;;19.83;9.37;;;13.00;99.90;;;;;;5003220;28;20502;-67
2023/10/07 01:06:14;;;;;;;13.50;7.40;;;12.90;99.90;;;;;;5004797;28;20416;-67
2023/10/07 01:08:44;;;;;;;14.23;8.63;;;12.90;99.90;;;;;;5004184;28;20471;-67
2023/10/07 01:13:50;;;;;;;14.23;8.60;;;12.90;99.90;;;;;;5002341;28;20558;-67
2023/10/07 01:16:33;;;;;;;16.93;9.40;;;13.00;99.90;;;;;;5005121;28;20888;-67
2023/10/07 01:21:55;;;;;;;13.07;8.40;;;12.90;99.90;;;;;;5003993;28;20527;-66
2023/10/07 01:24:46;;;;;;;14.70;8.60;;;12.90;99.90;;;;;;5001889;28;20448;-66
2023/10/07 01:27:18;;;;;;;12.13;7.17;;;13.00;99.90;;;;;;5005031;28;20442;-67
2023/10/07 01:29:45;;;;;;;14.57;7.53;;;13.00;99.90;;;;;;5002037;28;20474;-66
2023/10/07 01:32:16;;;;;;;11.83;7.43;;;12.90;99.90;;;;;;5003909;28;20505;-67
2023/10/07 01:34:47;;;;;;;13.10;7.50;;;12.80;99.90;;;;;;5003404;28;20467;-66
2023/10/07 01:37:21;;;;;;;9.70;6.80;;;12.80;99.90;;;;;;5002405;28;20491;-66
2023/10/07 01:39:49;;;;;;;9.87;7.67;;;12.80;99.90;;;;;;5004272;28;20428;-66
2023/10/07 01:42:37;;;;;;;14.53;7.90;;;12.90;99.90;;;;;;5001325;28;20490;-66
2023/10/07 01:45:10;;;;;;;22.40;10.30;;;12.90;99.90;;;;;;4997781;28;20808;-67
2023/10/07 01:47:35;;;;;;;11.03;6.80;;;12.80;99.90;;;;;;4999223;28;20938;-67
2023/10/07 01:50:11;;;;;;;14.40;8.50;;;12.80;99.90;;;;;;5003798;28;20474;-67
2023/10/07 01:52:37;;;;;;;12.43;7.73;;;12.70;99.90;;;;;;5001417;28;20460;-66
2023/10/07 01:55:08;;;;;;;10.90;6.63;;;12.70;99.90;;;;;;5002853;28;20432;-67
2023/10/07 01:57:34;;;;;;;14.80;7.80;;;12.80;99.90;;;;;;5003977;28;20438;-66
2023/10/07 02:00:05;;;;;;;13.17;7.57;;;12.90;99.90;;;;;;5003454;28;20998;-67
2023/10/07 02:02:31;;;;;;;10.97;7.33;;;12.80;99.90;;;;;;4999786;28;20514;-67
2023/10/07 02:04:56;;;;;;;10.10;6.77;;;12.90;99.90;;;;;;5006016;28;20443;-67
2023/10/07 02:07:22;;;;;;;11.30;7.30;;;12.90;99.90;;;;;;5003851;28;20205;-67
2023/10/07 02:09:48;;;;;;;11.93;7.80;;;12.90;99.90;;;;;;5002713;28;20672;-66
2023/10/07 02:12:18;;;;;;;11.03;7.20;;;12.90;99.90;;;;;;4999737;28;20205;-66
2023/10/07 02:14:44;;;;;;;15.13;8.30;;;12.80;99.90;;;;;;5002156;28;20184;-66
2023/10/07 02:17:12;;;;;;;13.13;8.23;;;12.80;99.90;;;;;;5004898;28;20999;-66
2023/10/07 02:19:40;;;;;;;12.00;7.40;;;12.70;99.90;;;;;;4999451;28;20189;-66
2023/10/07 02:22:20;;;;;;;15.50;8.73;;;12.70;99.90;;;;;;5000102;28;20452;-66
2023/10/07 02:24:50;;;;;;;12.93;7.50;;;12.70;99.90;;;;;;5002321;28;20432;-66
2023/10/07 02:27:19;;;;;;;14.50;8.53;;;12.70;99.90;;;;;;5001873;28;20448;-67
2023/10/07 02:29:48;;;;;;;12.50;8.67;;;12.60;99.90;;;;;;4996683;28;20850;-67
2023/10/07 02:32:14;;;;;;;14.47;9.00;;;12.60;99.90;;;;;;4999112;28;20490;-67
2023/10/07 02:35:01;;;;;;;13.43;7.70;;;12.50;99.90;;;;;;4999812;28;20454;-67
2023/10/07 02:37:31;;;;;;;14.90;10.87;;;12.60;99.90;;;;;;4994708;28;20420;-67
2023/10/07 02:40:19;;;;;;;54.87;43.20;;;12.50;99.90;;;;;;5004704;28;20502;-67
2023/10/07 02:42:46;;;;;;;61.67;43.77;;;12.50;99.90;;;;;;4998311;28;20466;-67
2023/10/07 02:45:20;;;;;;;42.57;29.23;;;12.50;99.90;;;;;;4999698;28;20867;-67
2023/10/07 02:47:53;;;;;;;27.70;17.40;;;12.40;99.90;;;;;;5000540;28;21025;-66
2023/10/07 02:50:19;;;;;;;17.10;10.93;;;12.40;99.90;;;;;;5004933;28;20469;-67
2023/10/07 02:52:49;;;;;;;17.77;10.60;;;12.50;99.90;;;;;;5000243;28;20464;-67
2023/10/07 02:57:40;;;;;;;15.00;8.50;;;12.40;99.90;;;;;;4997954;28;20464;-66
2023/10/07 03:00:36;;;;;;;14.70;10.10;;;12.30;99.90;;;;;;4999658;28;20190;-67
2023/10/07 03:05:45;;;;;;;14.30;9.03;;;12.20;99.90;;;;;;4999159;28;20498;-67
2023/10/07 03:08:19;;;;;;;17.17;10.17;;;12.40;99.90;;;;;;5004643;28;20487;-67
2023/10/07 03:10:54;;;;;;;13.20;9.13;;;12.30;99.90;;;;;;4997891;28;20452;-67
2023/10/07 03:13:22;;;;;;;14.33;8.40;;;12.40;99.90;;;;;;4996997;28;20455;-67
2023/10/07 03:16:09;;;;;;;14.57;9.80;;;12.40;99.90;;;;;;5002472;28;21194;-67
2023/10/07 03:18:33;;;;;;;16.23;10.63;;;12.50;99.90;;;;;;5001389;28;20792;-67
2023/10/07 03:21:10;;;;;;;14.20;8.43;;;12.50;99.90;;;;;;4999962;28;20484;-68
2023/10/07 03:23:45;;;;;;;14.83;8.97;;;12.50;99.90;;;;;;4999207;28;20197;-67
2023/10/07 03:26:22;;;;;;;19.50;9.37;;;12.50;99.90;;;;;;5002950;28;20432;-67
2023/10/07 03:28:54;;;;;;;14.07;8.57;;;12.50;99.90;;;;;;5017248;28;20546;-66
2023/10/07 03:31:28;;;;;;;15.87;8.03;;;12.50;99.90;;;;;;4999013;28;20865;-67
2023/10/07 03:33:58;;;;;;;11.43;8.10;;;12.50;99.90;;;;;;5003131;28;20436;-67
2023/10/07 03:38:57;;;;;;;16.40;8.67;;;12.50;99.90;;;;;;5001969;28;20516;-67
2023/10/07 03:41:23;;;;;;;12.87;8.80;;;12.50;99.90;;;;;;4997821;28;20748;-67
2023/10/07 03:43:50;;;;;;;12.90;8.13;;;12.50;99.90;;;;;;5006478;28;20463;-67
2023/10/07 03:46:17;;;;;;;14.33;8.40;;;12.50;99.90;;;;;;5004624;28;20421;-67
2023/10/07 03:48:53;;;;;;;15.77;8.47;;;12.40;99.90;;;;;;5006130;28;20467;-66
2023/10/07 03:51:21;;;;;;;16.70;9.23;;;12.40;99.90;;;;;;5003370;28;20443;-67
2023/10/07 03:53:49;;;;;;;10.47;7.43;;;12.30;99.90;;;;;;5001176;28;20459;-66
2023/10/07 03:56:14;;;;;;;13.50;7.70;;;12.40;99.90;;;;;;5007219;28;20412;-67
2023/10/07 03:58:44;;;;;;;12.27;7.97;;;12.30;99.90;;;;;;5003635;28;20467;-67
2023/10/07 04:01:16;;;;;;;16.60;7.33;;;12.20;99.90;;;;;;5001671;28;20188;-67
2023/10/07 04:03:52;;;;;;;12.60;8.97;;;12.30;99.90;;;;;;5004668;28;20960;-67
2023/10/07 04:06:30;;;;;;;12.07;7.90;;;12.20;99.90;;;;;;5003413;28;20438;-67
2023/10/07 04:09:05;;;;;;;12.43;8.03;;;12.20;99.90;;;;;;5004129;28;20571;-67
2023/10/07 04:11:32;;;;;;;15.57;8.20;;;12.10;99.90;;;;;;5004998;28;20430;-67
2023/10/07 04:13:59;;;;;;;11.83;7.30;;;12.20;99.90;;;;;;5000745;28;20471;-67
2023/10/07 04:16:24;;;;;;;11.53;7.07;;;12.20;99.90;;;;;;5000212;28;20420;-67
2023/10/07 04:19:30;;;;;;;13.40;8.80;;;12.30;99.90;;;;;;5003639;28;20801;-67
2023/10/07 04:21:54;;;;;;;11.70;6.60;;;12.40;99.90;;;;;;5007012;28;20195;-67
2023/10/07 04:24:23;;;;;;;13.67;8.30;;;12.40;99.90;;;;;;5003511;28;20424;-67
2023/10/07 04:26:55;;;;;;;11.10;7.27;;;12.40;99.90;;;;;;5003665;28;20440;-67
2023/10/07 04:29:21;;;;;;;13.90;6.60;;;12.30;99.90;;;;;;5000059;28;20518;-67
2023/10/07 04:31:51;;;;;;;9.97;7.30;;;12.20;99.90;;;;;;5000239;28;20850;-67
2023/10/07 04:34:20;;;;;;;12.03;7.00;;;12.20;99.90;;;;;;5000083;28;20416;-67
2023/10/07 04:40:52;;;;;;;11.10;7.20;;;12.20;99.90;;;;;;5002128;28;20463;-67
2023/10/07 04:42:36;;;;;;;14.40;6.97;;;12.00;99.90;;;;;;4999222;28;20472;-67
2023/10/07 04:45:23;;;;;;;13.80;8.23;;;12.00;99.90;;;;;;5011194;28;20428;-67
2023/10/07 04:47:57;;;;;;;12.50;7.97;;;12.00;99.90;;;;;;5012658;28;20995;-67
2023/10/07 04:50:33;;;;;;;11.87;7.03;;;11.80;99.90;;;;;;5003728;28;20877;-67
2023/10/07 04:53:03;;;;;;;11.73;8.20;;;11.80;99.90;;;;;;5004142;28;20458;-67
2023/10/07 04:55:29;;;;;;;10.53;7.40;;;11.90;99.90;;;;;;5017341;28;20424;-67
2023/10/07 05:03:11;;;;;;;11.30;8.10;;;11.80;99.90;;;;;;5012956;28;20212;-67
2023/10/07 05:05:36;;;;;;;11.37;7.30;;;11.80;99.90;;;;;;5013784;28;20458;-67
2023/10/07 05:08:19;;;;;;;12.60;7.53;;;11.90;99.90;;;;;;5004176;28;20507;-67
2023/10/07 05:11:03;;;;;;;12.03;7.60;;;11.90;99.90;;;;;;5010284;28;20643;-67
2023/10/07 05:13:32;;;;;;;13.93;7.63;;;11.90;99.90;;;;;;5008591;28;20447;-67
2023/10/07 05:15:57;;;;;;;15.17;9.40;;;12.00;99.90;;;;;;5006681;28;20429;-67
2023/10/07 05:18:23;;;;;;;12.37;7.97;;;12.00;99.90;;;;;;5007248;28;20433;-65
2023/10/07 05:20:48;;;;;;;13.20;8.23;;;12.00;99.90;;;;;;5000524;28;20269;-65
2023/10/07 05:23:14;;;;;;;16.20;9.33;;;12.00;99.90;;;;;;5006711;28;20196;-65
2023/10/07 05:25:48;;;;;;;12.87;7.97;;;11.90;99.90;;;;;;5010714;28;20789;-65
2023/10/07 05:28:20;;;;;;;13.00;8.17;;;12.00;99.90;;;;;;5014092;28;20408;-66
2023/10/07 05:30:52;;;;;;;12.37;7.53;;;12.00;99.90;;;;;;5011445;28;20423;-66
2023/10/07 05:33:20;;;;;;;13.80;8.37;;;12.00;99.90;;;;;;5009756;28;20433;-66
2023/10/07 05:35:49;;;;;;;11.77;7.47;;;11.90;99.90;;;;;;5006476;28;20424;-66
2023/10/07 05:38:18;;;;;;;12.77;7.43;;;11.90;99.90;;;;;;5010466;28;20431;-66
2023/10/07 05:40:43;;;;;;;12.10;7.60;;;11.90;99.90;;;;;;5009638;28;20567;-66
2023/10/07 05:43:09;;;;;;;14.97;9.00;;;11.90;99.90;;;;;;5009798;28;21147;-66
2023/10/07 05:45:35;;;;;;;15.50;8.90;;;12.00;99.90;;;;;;5006394;28;20250;-65
2023/10/07 05:48:01;;;;;;;11.20;7.93;;;11.90;99.90;;;;;;5009277;28;20177;-66
2023/10/07 05:50:32;;;;;;;17.03;9.33;;;11.80;99.90;;;;;;5004326;28;20968;-66
2023/10/07 05:52:59;;;;;;;12.50;8.00;;;11.80;99.90;;;;;;5002274;28;20441;-66
2023/10/07 05:55:25;;;;;;;12.17;8.47;;;11.80;99.90;;;;;;5005338;28;20423;-66
2023/10/07 05:57:52;;;;;;;13.27;8.87;;;11.80;99.90;;;;;;5010459;28;21023;-66
2023/10/07 06:00:18;;;;;;;11.50;8.87;;;11.80;99.90;;;;;;5005954;28;20188;-66
2023/10/07 06:02:43;;;;;;;12.30;8.33;;;11.80;99.90;;;;;;5009281;28;20467;-66
2023/10/07 06:05:12;;;;;;;17.23;9.30;;;11.90;99.90;;;;;;5005370;28;20751;-68
2023/10/07 06:07:41;;;;;;;12.37;8.07;;;11.90;99.90;;;;;;5010688;28;20200;-66
2023/10/07 06:10:10;;;;;;;11.50;8.60;;;12.00;99.90;;;;;;5000514;28;20472;-67
2023/10/07 06:12:36;;;;;;;10.93;8.17;;;12.00;99.90;;;;;;5007764;28;20443;-66
2023/10/07 06:15:08;;;;;;;11.00;7.73;;;12.00;99.90;;;;;;5009812;28;20428;-66
2023/10/07 06:17:34;;;;;;;12.63;8.00;;;12.00;99.90;;;;;;5003617;28;20540;-66
2023/10/07 06:19:59;;;;;;;10.10;6.87;;;11.90;99.90;;;;;;5006156;28;20438;-66
2023/10/07 06:22:25;;;;;;;12.73;7.50;;;11.90;99.90;;;;;;5006048;28;20442;-67
2023/10/07 06:24:55;;;;;;;11.50;9.20;;;11.80;99.90;;;;;;5001282;28;20310;-66
2023/10/07 06:27:21;;;;;;;12.43;7.07;;;11.80;99.90;;;;;;5007971;28;20181;-66
2023/10/07 06:29:48;;;;;;;10.03;6.73;;;11.90;99.90;;;;;;5007704;28;20464;-65
2023/10/07 06:34:51;;;;;;;12.80;7.80;;;11.90;99.90;;;;;;5001646;28;20438;-66
2023/10/07 06:37:26;;;;;;;10.30;7.30;;;11.90;99.90;;;;;;4997823;28;20424;-66
2023/10/07 06:39:52;;;;;;;11.30;7.40;;;11.90;99.90;;;;;;5004345;28;20463;-66
2023/10/07 06:42:24;;;;;;;15.10;8.17;;;11.90;99.90;;;;;;5000345;28;20494;-66
2023/10/07 06:44:56;;;;;;;10.30;6.43;;;11.90;99.90;;;;;;4999375;28;20487;-66
2023/10/07 06:47:29;;;;;;;12.00;7.10;;;11.80;99.90;;;;;;4998819;28;20428;-66
2023/10/07 06:49:56;;;;;;;13.57;7.83;;;11.90;99.90;;;;;;5001621;28;20579;-67
2023/10/07 06:52:22;;;;;;;12.53;8.10;;;12.00;99.90;;;;;;5001238;28;20498;-66
2023/10/07 06:54:48;;;;;;;12.17;7.10;;;12.00;99.90;;;;;;5001639;28;20412;-66
2023/10/07 06:57:14;;;;;;;12.13;7.47;;;12.10;99.90;;;;;;5003064;28;20431;-66
2023/10/07 06:59:40;;;;;;;16.30;6.90;;;12.20;99.90;;;;;;4999409;28;20479;-66
2023/10/07 07:02:06;;;;;;;11.43;7.07;;;12.30;99.90;;;;;;5000947;28;20296;-66
2023/10/07 07:04:32;;;;;;;10.33;7.10;;;12.30;99.90;;;;;;5000723;28;20570;-67
2023/10/07 07:06:58;;;;;;;10.80;7.07;;;12.30;99.90;;;;;;4998621;28;20440;-66
2023/10/07 07:12:11;;;;;;;11.67;7.33;;;12.20;99.90;;;;;;4996089;28;20469;-66
2023/10/07 07:14:37;;;;;;;18.33;7.53;;;12.30;99.90;;;;;;4997187;28;20428;-66
2023/10/07 07:20:48;;;;;;;8.73;6.23;;;12.30;99.90;;;;;;4996631;28;21236;-66
2023/10/07 07:22:42;;;;;;;10.70;6.60;;;12.40;99.90;;;;;;5003250;28;20444;-66
2023/10/07 07:25:12;;;;;;;11.03;7.13;;;12.60;99.90;;;;;;4997656;28;20448;-66
2023/10/07 07:27:44;;;;;;;10.03;6.63;;;12.60;99.90;;;;;;5002953;28;20428;-66
2023/10/07 07:30:19;;;;;;;12.03;7.30;;;12.70;99.90;;;;;;4998973;28;20470;-66
2023/10/07 07:32:55;;;;;;;11.87;7.30;;;12.80;99.90;;;;;;4994647;28;20509;-66
2023/10/07 07:35:22;;;;;;;10.83;6.73;;;12.90;99.90;;;;;;4998916;28;20509;-67
2023/10/07 07:37:50;;;;;;;13.60;7.60;;;12.90;99.90;;;;;;5000947;28;20581;-66
2023/10/07 07:43:00;;;;;;;11.97;6.40;;;12.90;99.90;;;;;;4992544;28;20884;-66
2023/10/07 07:45:26;;;;;;;10.63;7.83;;;13.00;99.90;;;;;;4998526;28;20499;-67
2023/10/07 07:47:53;;;;;;;9.20;6.20;;;13.20;99.90;;;;;;4995507;28;20217;-66
2023/10/07 07:50:19;;;;;;;10.93;6.60;;;13.30;99.90;;;;;;4997558;28;20464;-67
2023/10/07 07:52:49;;;;;;;13.17;7.20;;;13.40;99.90;;;;;;4997120;28;20475;-67
2023/10/07 07:55:17;;;;;;;10.87;6.30;;;13.50;99.90;;;;;;4998581;28;20432;-67
2023/10/07 07:57:46;;;;;;;11.47;7.73;;;13.60;99.90;;;;;;4998510;28;20424;-66
2023/10/07 08:00:20;;;;;;;13.83;7.47;;;13.80;99.90;;;;;;5001703;28;20440;-66
2023/10/07 08:02:48;;;;;;;11.40;6.43;;;13.80;99.90;;;;;;5001278;28;20453;-66
2023/10/07 08:05:16;;;;;;;9.07;6.60;;;13.80;99.90;;;;;;4998140;28;20539;-66
2023/10/07 08:07:43;;;;;;;9.47;6.13;;;13.80;99.90;;;;;;4998488;28;20448;-65
2023/10/07 08:10:10;;;;;;;10.50;7.00;;;13.80;99.90;;;;;;5001807;28;20467;-66
2023/10/07 08:12:37;;;;;;;9.50;5.97;;;13.70;99.90;;;;;;4999793;28;20460;-66
2023/10/07 08:15:21;;;;;;;13.70;7.77;;;13.80;99.90;;;;;;5001332;28;20604;-66
2023/10/07 08:17:51;;;;;;;18.57;6.80;;;13.80;99.90;;;;;;5008507;28;20433;-66
2023/10/07 08:20:27;;;;;;;10.40;6.47;;;13.90;99.90;;;;;;4995134;28;20452;-66
2023/10/07 08:22:53;;;;;;;8.67;5.77;;;13.90;99.90;;;;;;5003193;28;20458;-67
2023/10/07 08:25:45;;;;;;;10.30;6.00;;;14.00;99.90;;;;;;4997727;28;20890;-66
2023/10/07 08:28:39;;;;;;;9.87;5.80;;;14.20;99.90;;;;;;4999788;28;20188;-67
2023/10/07 08:31:13;;;;;;;8.90;5.87;;;14.30;99.90;;;;;;4996948;28;20506;-66
2023/10/07 08:33:38;;;;;;;9.93;6.47;;;14.50;99.90;;;;;;5003587;28;20486;-66
2023/10/07 08:36:07;;;;;;;10.17;6.03;;;14.70;99.90;;;;;;4998558;28;20436;-67
2023/10/07 08:38:44;;;;;;;12.50;7.10;;;14.80;99.90;;;;;;5006467;28;20260;-67
2023/10/07 08:41:15;;;;;;;12.40;6.70;;;14.90;99.90;;;;;;5006169;28;20415;-67
2023/10/07 08:43:44;;;;;;;8.67;6.20;;;15.10;99.90;;;;;;5013927;28;20467;-67
2023/10/07 08:46:19;;;;;;;10.30;5.97;;;15.20;99.90;;;;;;5003966;28;20424;-67
2023/10/07 08:48:52;;;;;;;11.20;6.80;;;15.30;99.90;;;;;;5002387;28;20893;-67
2023/10/07 08:51:23;;;;;;;9.33;6.07;;;15.40;99.90;;;;;;5009527;28;20805;-67
2023/10/07 08:53:50;;;;;;;10.50;5.53;;;15.50;99.90;;;;;;5008364;28;20460;-67
2023/10/07 08:56:19;;;;;;;9.03;6.23;;;15.60;99.90;;;;;;5006168;28;20798;-67
2023/10/07 08:58:49;;;;;;;12.87;8.57;;;15.60;99.90;;;;;;5003527;28;20468;-67
2023/10/07 09:01:18;;;;;;;13.00;6.00;;;15.80;99.90;;;;;;5004858;28;20984;-67
2023/10/07 09:03:49;;;;;;;9.90;6.50;;;15.90;99.90;;;;;;5004432;28;20952;-67
2023/10/07 09:06:20;;;;;;;8.53;5.50;;;16.00;99.90;;;;;;4994646;28;20980;-68
2023/10/07 09:08:48;;;;;;;7.20;5.00;;;16.10;99.90;;;;;;5000241;28;20482;-68
2023/10/07 09:11:18;;;;;;;15.87;6.20;;;16.10;99.90;;;;;;5000051;28;20434;-68
2023/10/07 09:13:44;;;;;;;8.77;5.70;;;16.20;99.90;;;;;;5002939;28;20460;-68
2023/10/07 09:16:12;;;;;;;8.97;5.67;;;16.30;99.90;;;;;;5001316;28;20434;-68
2023/10/07 09:18:41;;;;;;;8.47;5.60;;;16.30;99.90;;;;;;4999645;28;20843;-67
2023/10/07 09:21:19;;;;;;;16.90;5.37;;;16.50;99.90;;;;;;5002850;28;20433;-68
2023/10/07 09:23:58;;;;;;;8.80;5.70;;;16.50;99.90;;;;;;5005005;28;20487;-68
2023/10/07 09:26:41;;;;;;;7.97;5.20;;;16.60;99.90;;;;;;5002921;28;20439;-68
2023/10/07 09:29:15;;;;;;;9.70;6.50;;;16.80;99.90;;;;;;5006478;28;20467;-67
2023/10/07 09:31:50;;;;;;;8.50;5.27;;;16.90;99.90;;;;;;5003806;28;20809;-67
2023/10/07 09:34:29;;;;;;;10.10;5.50;;;17.10;99.90;;;;;;5002829;28;20776;-67
2023/10/07 09:37:05;;;;;;;9.93;5.73;;;17.20;99.90;;;;;;5005511;28;20465;-68
2023/10/07 09:39:33;;;;;;;9.60;5.97;;;17.20;99.90;;;;;;5009582;28;20408;-67
2023/10/07 09:42:04;;;;;;;7.47;5.23;;;17.20;99.90;;;;;;5006953;28;20459;-67
2023/10/07 09:44:31;;;;;;;9.70;5.93;;;17.30;99.90;;;;;;5005096;28;20695;-67
2023/10/07 09:47:10;;;;;;;8.70;5.40;;;17.30;99.90;;;;;;5007167;28;20417;-67
2023/10/07 09:49:36;;;;;;;10.67;6.30;;;17.30;99.90;;;;;;5005905;28;20579;-67
2023/10/07 09:52:16;;;;;;;11.77;5.00;;;17.40;99.90;;;;;;5004410;28;20543;-68
2023/10/07 09:54:55;;;;;;;9.00;5.50;;;17.50;99.90;;;;;;5007080;28;20192;-68
2023/10/07 09:57:21;;;;;;;9.10;5.27;;;17.60;99.90;;;;;;5001782;28;20949;-68
2023/10/07 10:00:38;;;;;;;8.50;4.90;;;17.70;99.90;;;;;;5004444;28;20440;-68
2023/10/07 10:03:34;;;;;;;7.57;5.37;;;17.80;99.90;;;;;;5001878;28;20216;-68
2023/10/07 10:06:33;;;;;;;8.93;5.03;;;17.90;99.90;;;;;;5000682;28;20451;-68
2023/10/07 10:09:08;;;;;;;8.00;5.30;;;18.00;99.90;;;;;;4999433;28;20502;-68
2023/10/07 10:16:54;;;;;;;8.07;5.70;;;18.10;99.90;;;;;;5005982;28;20404;-68
2023/10/07 10:19:44;;;;;;;7.13;4.93;;;18.10;99.90;;;;;;5019445;28;20446;-68
2023/10/07 10:22:11;;;;;;;9.13;4.90;;;18.10;99.90;;;;;;5005615;28;20531;-67
2023/10/07 10:24:43;;;;;;;8.97;5.23;;;18.10;99.90;;;;;;5000607;28;20432;-67
2023/10/07 10:27:11;;;;;;;8.20;5.30;;;18.30;99.90;;;;;;5002889;28;20427;-67
2023/10/07 10:29:55;;;;;;;10.67;5.60;;;18.40;99.90;;;;;;5005210;28;20472;-67
2023/10/07 10:32:30;;;;;;;8.77;5.90;;;18.50;99.90;;;;;;5003300;28;20458;-67
2023/10/07 10:35:00;;;;;;;7.10;4.97;;;18.60;99.90;;;;;;5003587;28;20424;-68
2023/10/07 10:37:28;;;;;;;7.90;4.87;;;18.60;99.90;;;;;;4999579;28;20442;-68
2023/10/07 10:39:53;;;;;;;7.60;5.00;;;18.60;99.90;;;;;;5000994;28;20802;-68
2023/10/07 10:42:21;;;;;;;11.67;5.50;;;18.60;99.90;;;;;;4995133;28;20461;-68
2023/10/07 10:44:48;;;;;;;8.70;5.33;;;18.70;99.90;;;;;;5000735;28;20185;-67
2023/10/07 10:47:18;;;;;;;10.77;5.60;;;18.80;99.90;;;;;;5001712;28;20424;-68
2023/10/07 10:49:44;;;;;;;8.73;5.33;;;18.90;99.90;;;;;;5001840;28;20924;-67
2023/10/07 10:52:11;;;;;;;13.00;6.20;;;18.90;99.90;;;;;;4999140;28;20578;-67
2023/10/07 10:54:39;;;;;;;10.50;5.20;;;18.90;99.90;;;;;;5017862;28;20455;-68
2023/10/07 10:57:08;;;;;;;11.70;7.03;;;18.90;99.90;;;;;;5002068;28;20926;-68
2023/10/07 10:59:36;;;;;;;8.27;4.83;;;18.90;99.90;;;;;;5000217;28;20440;-68
2023/10/07 11:02:05;;;;;;;8.60;5.07;;;19.00;99.90;;;;;;5002898;28;20463;-68
2023/10/07 11:04:31;;;;;;;8.13;5.27;;;19.00;99.90;;;;;;4998012;28;20825;-68
2023/10/07 11:07:00;;;;;;;7.77;4.73;;;19.10;99.90;;;;;;5003935;28;20491;-68
2023/10/07 11:09:26;;;;;;;8.70;5.63;;;19.20;99.90;;;;;;4999396;28;20526;-68
2023/10/07 11:11:54;;;;;;;9.43;6.00;;;19.20;99.90;;;;;;4999449;28;20463;-68
2023/10/07 11:14:21;;;;;;;6.37;4.60;;;19.20;99.90;;;;;;4999369;28;20417;-68
2023/10/07 11:16:48;;;;;;;8.80;4.90;;;19.20;99.90;;;;;;5007648;28;20424;-67
2023/10/07 11:19:18;;;;;;;9.13;5.00;;;19.20;99.90;;;;;;5000744;28;20480;-67
2023/10/07 11:21:45;;;;;;;6.00;4.33;;;19.20;99.90;;;;;;5001846;28;20432;-67
2023/10/07 11:24:22;;;;;;;7.10;5.17;;;19.20;99.90;;;;;;4997007;28;20439;-68
2023/10/07 11:26:49;;;;;;;8.43;4.57;;;19.20;99.90;;;;;;4995496;28;20428;-66
2023/10/07 11:29:15;;;;;;;8.10;5.40;;;19.20;99.90;;;;;;4996440;28;20475;-68
2023/10/07 11:31:43;;;;;;;9.00;5.27;;;19.30;99.90;;;;;;4993024;28;20506;-67
2023/10/07 11:34:10;;;;;;;9.60;4.80;;;19.40;99.90;;;;;;4997152;28;20865;-67
2023/10/07 11:36:46;;;;;;;7.70;5.33;;;19.50;99.90;;;;;;5004282;28;20511;-67
2023/10/07 11:39:13;;;;;;;7.20;4.87;;;19.60;99.90;;;;;;4994998;28;20450;-67
2023/10/07 11:41:42;;;;;;;16.50;5.80;;;19.80;99.90;;;;;;4996226;28;21243;-67
2023/10/07 11:44:12;;;;;;;8.80;5.77;;;20.00;99.90;;;;;;4998801;28;20992;-67
2023/10/07 11:46:41;;;;;;;10.93;5.33;;;20.00;99.90;;;;;;5004271;28;20781;-67
2023/10/07 11:49:07;;;;;;;10.33;5.10;;;20.00;99.90;;;;;;5001540;28;20466;-67
2023/10/07 11:51:33;;;;;;;10.80;4.70;;;20.10;99.90;;;;;;4999660;28;20642;-69
2023/10/07 11:54:00;;;;;;;9.67;4.70;;;20.30;99.90;;;;;;4998081;28;20957;-68
2023/10/07 11:56:27;;;;;;;7.50;4.67;;;20.40;99.90;;;;;;4998661;28;20178;-68
2023/10/07 11:58:53;;;;;;;8.03;5.00;;;20.50;99.90;;;;;;4995283;28;20450;-67
2023/10/07 12:01:20;;;;;;;6.23;4.40;;;20.60;99.90;;;;;;4997330;28;20471;-66
2023/10/07 12:03:46;;;;;;;7.70;4.80;;;20.50;99.90;;;;;;4997602;28;20490;-67
2023/10/07 12:06:12;;;;;;;11.47;5.13;;;20.60;99.90;;;;;;5002951;28;20435;-67
2023/10/07 12:08:38;;;;;;;8.10;5.03;;;20.70;99.90;;;;;;4995454;28;20980;-67
2023/10/07 12:11:05;;;;;;;8.40;4.50;;;20.60;99.90;;;;;;5003648;28;20181;-67
2023/10/07 12:13:34;;;;;;;6.53;4.67;;;20.60;99.90;;;;;;5000637;28;20544;-67
2023/10/07 12:16:00;;;;;;;6.80;4.70;;;20.70;99.90;;;;;;5003657;28;20493;-67
2023/10/07 12:18:26;;;;;;;7.20;4.60;;;20.70;99.90;;;;;;4996651;28;20456;-66
2023/10/07 12:20:56;;;;;;;8.50;4.47;;;20.70;99.90;;;;;;5002831;28;20196;-66
2023/10/07 12:23:22;;;;;;;5.83;4.50;;;20.90;99.90;;;;;;5003198;28;20204;-67
2023/10/07 12:25:48;;;;;;;7.33;4.70;;;20.90;99.90;;;;;;5003727;28;20486;-67
2023/10/07 12:28:13;;;;;;;8.90;5.43;;;21.00;99.90;;;;;;5011003;28;20477;-67
2023/10/07 12:30:39;;;;;;;8.40;5.17;;;21.20;99.90;;;;;;5010577;28;20198;-67
2023/10/07 12:33:05;;;;;;;6.60;4.80;;;21.50;99.90;;;;;;5007110;28;20232;-67
2023/10/07 12:35:34;;;;;;;12.20;4.83;;;21.90;99.90;;;;;;4991462;28;20193;-67
2023/10/07 12:38:00;;;;;;;6.77;4.93;;;23.20;99.90;;;;;;5005226;28;20180;-67
2023/10/07 12:40:30;;;;;;;7.33;4.60;;;24.00;98.60;;;;;;4992056;28;20424;-67
2023/10/07 12:42:58;;;;;;;10.50;4.80;;;23.70;97.80;;;;;;5001692;28;20639;-67
2023/10/07 12:45:24;;;;;;;8.20;5.17;;;23.00;97.40;;;;;;5001582;28;20745;-68
2023/10/07 12:47:54;;;;;;;6.73;4.63;;;22.60;98.10;;;;;;5000340;28;20468;-67
2023/10/07 12:50:20;;;;;;;6.10;4.33;;;22.30;98.60;;;;;;4999443;28;20259;-67
2023/10/07 12:52:54;;;;;;;6.67;4.97;;;22.30;98.50;;;;;;5001407;28;20436;-67
2023/10/07 12:55:21;;;;;;;5.50;3.97;;;22.30;98.40;;;;;;5001274;28;20211;-67
2023/10/07 12:57:51;;;;;;;6.03;4.40;;;22.40;98.40;;;;;;5003489;28;20425;-67
2023/10/07 13:00:23;;;;;;;5.63;4.50;;;22.50;98.20;;;;;;5004431;28;20428;-67
2023/10/07 13:02:50;;;;;;;8.67;5.53;;;23.30;97.80;;;;;;5000655;28;20463;-68
2023/10/07 13:05:19;;;;;;;7.60;4.47;;;23.50;96.40;;;;;;5011715;28;20506;-67
2023/10/07 13:07:53;;;;;;;11.33;4.90;;;23.80;95.70;;;;;;5000959;28;20440;-67
2023/10/07 13:10:19;;;;;;;11.43;5.13;;;24.00;95.10;;;;;;5003768;28;20848;-68
2023/10/07 13:12:46;;;;;;;7.33;5.20;;;24.20;94.90;;;;;;5001665;28;20448;-67
2023/10/07 13:15:16;;;;;;;8.60;5.27;;;24.70;94.30;;;;;;5000610;28;20421;-67
2023/10/07 13:17:46;;;;;;;5.77;4.77;;;25.00;93.20;;;;;;5001389;28;20447;-67
2023/10/07 13:20:23;;;;;;;7.00;5.00;;;25.80;92.90;;;;;;4997202;28;20429;-68
2023/10/07 13:22:53;;;;;;;9.57;5.13;;;26.60;91.00;;;;;;5004799;28;20450;-68
2023/10/07 13:25:19;;;;;;;8.60;5.30;;;26.60;89.50;;;;;;4998185;28;20437;-68
2023/10/07 13:27:55;;;;;;;7.53;4.93;;;26.50;88.50;;;;;;5005432;28;20423;-68
2023/10/07 13:30:24;;;;;;;5.93;4.17;;;26.40;88.00;;;;;;5002506;28;20465;-68
2023/10/07 13:32:52;;;;;;;8.10;5.37;;;26.50;87.60;;;;;;5001864;28;20542;-67
2023/10/07 13:35:19;;;;;;;7.00;4.93;;;26.60;85.30;;;;;;4998893;28;20426;-67
2023/10/07 13:37:46;;;;;;;7.50;5.10;;;25.80;85.00;;;;;;5003337;28;20475;-67
2023/10/07 13:40:16;;;;;;;8.60;5.13;;;26.20;86.40;;;;;;4995807;28;20486;-67
2023/10/07 13:42:49;;;;;;;6.20;4.77;;;26.50;85.50;;;;;;4998927;28;20455;-67
2023/10/07 13:45:18;;;;;;;9.43;4.27;;;26.50;84.80;;;;;;5001707;28;20419;-67